Time;durP1;ratioP1;P1;durP2;ratioP2;P2;SDS_P1;SDS_P2;PMS_P1;PMS_P2;Temp;Humidity;BMP_temperature;BMP_pressure;BME280_temperature;BME280_humidity;BME280_pressure;Samples;Min_cycle;Max_cycle;Signal;HPM_P1;HPM_P2
2023/12/12 00:02:00;;;;;;;4.22;2.03;;;;;;;;;;5066457;28;20032;-70
2023/12/12 00:04:26;;;;;;;4.63;2.47;;;;;;;;;;5060210;28;20056;-70
2023/12/12 00:06:52;;;;;;;6.57;2.80;;;;;;;;;;5062181;28;20028;-70
2023/12/12 00:09:19;;;;;;;7.10;2.33;;;;;;;;;;5056564;28;20493;-70
2023/12/12 00:11:45;;;;;;;5.88;2.58;;;;;;;;;;5056754;28;20028;-70
2023/12/12 00:14:11;;;;;;;5.78;2.47;;;;;;;;;;5052120;28;20433;-71
2023/12/12 00:16:37;;;;;;;4.93;2.28;;;;;;;;;;5064362;28;20031;-71
2023/12/12 00:19:03;;;;;;;6.13;2.30;;;;;;;;;;5063209;28;20032;-70
2023/12/12 00:21:30;;;;;;;6.97;2.63;;;;;;;;;;5061148;28;20062;-70
2023/12/12 00:23:56;;;;;;;7.03;2.38;;;;;;;;;;5073662;28;20036;-71
2023/12/12 00:26:22;;;;;;;7.30;2.35;;;;;;;;;;5063827;28;20044;-70
2023/12/12 00:28:48;;;;;;;8.10;2.78;;;;;;;;;;5066293;28;20146;-71
2023/12/12 00:31:15;;;;;;;8.48;2.83;;;;;;;;;;5062053;28;20032;-70
2023/12/12 00:33:41;;;;;;;8.70;2.47;;;;;;;;;;5058094;28;20040;-70
2023/12/12 00:36:07;;;;;;;11.70;2.90;;;;;;;;;;5060716;28;20032;-70
2023/12/12 00:38:33;;;;;;;8.52;3.55;;;;;;;;;;5057316;28;20040;-71
2023/12/12 00:40:59;;;;;;;11.27;3.40;;;;;;;;;;5055449;28;20047;-71
2023/12/12 00:43:26;;;;;;;3.25;2.58;;;;;;;;;;5076408;28;20403;-70
2023/12/12 00:45:52;;;;;;;6.47;2.95;;;;;;;;;;5061193;28;20052;-70
2023/12/12 00:48:18;;;;;;;8.80;3.42;;;;;;;;;;5061601;28;20480;-70
2023/12/12 00:50:45;;;;;;;10.98;3.35;;;;;;;;;;5062447;28;20036;-70
2023/12/12 00:53:11;;;;;;;14.35;4.40;;;;;;;;;;5062880;28;20081;-70
2023/12/12 00:55:37;;;;;;;12.38;3.15;;;;;;;;;;5061625;28;20040;-70
2023/12/12 00:58:04;;;;;;;11.82;3.10;;;;;;;;;;5057235;28;20036;-70
2023/12/12 01:00:30;;;;;;;11.48;3.03;;;;;;;;;;5056413;28;20023;-71
2023/12/12 01:02:56;;;;;;;22.35;3.60;;;;;;;;;;5058068;28;20488;-70
2023/12/12 01:05:22;;;;;;;11.98;2.80;;;;;;;;;;5055628;28;20493;-70
2023/12/12 01:07:48;;;;;;;15.98;3.70;;;;;;;;;;5059603;28;20028;-70
2023/12/12 01:10:15;;;;;;;7.28;2.90;;;;;;;;;;5057268;28;20044;-71
2023/12/12 01:12:41;;;;;;;8.48;3.28;;;;;;;;;;5081611;28;20032;-70
2023/12/12 01:15:07;;;;;;;16.15;3.17;;;;;;;;;;5067377;28;20135;-70
2023/12/12 01:17:34;;;;;;;17.45;3.97;;;;;;;;;;5064222;28;20110;-70
2023/12/12 01:20:00;;;;;;;10.40;2.90;;;;;;;;;;5064905;28;20028;-72
2023/12/12 01:22:26;;;;;;;22.98;3.88;;;;;;;;;;5083546;28;20028;-70
2023/12/12 01:24:52;;;;;;;22.27;4.13;;;;;;;;;;5056945;28;20021;-70
2023/12/12 01:27:19;;;;;;;11.57;3.45;;;;;;;;;;5061444;28;20472;-71
2023/12/12 01:29:45;;;;;;;17.23;3.60;;;;;;;;;;5053481;28;20419;-70
2023/12/12 01:32:12;;;;;;;8.85;3.30;;;;;;;;;;5066952;28;20025;-70
2023/12/12 01:34:38;;;;;;;10.10;3.05;;;;;;;;;;5060832;28;20029;-70
2023/12/12 01:37:04;;;;;;;13.55;3.72;;;;;;;;;;5065822;28;20040;-70
2023/12/12 01:39:30;;;;;;;13.48;3.70;;;;;;;;;;5065195;28;20028;-70
2023/12/12 01:41:56;;;;;;;10.40;2.88;;;;;;;;;;5063633;28;20035;-70
2023/12/12 01:44:22;;;;;;;12.38;3.67;;;;;;;;;;5064701;28;20051;-70
2023/12/12 01:46:50;;;;;;;13.18;3.92;;;;;;;;;;5072305;28;20043;-70
2023/12/12 01:49:16;;;;;;;14.60;3.92;;;;;;;;;;5056317;28;20047;-70
2023/12/12 01:51:43;;;;;;;12.98;3.50;;;;;;;;;;5059864;28;20166;-71
2023/12/12 01:54:09;;;;;;;14.30;4.47;;;;;;;;;;5068063;28;20026;-70
2023/12/12 01:56:36;;;;;;;12.93;4.30;;;;;;;;;;5081480;28;20043;-70
2023/12/12 01:59:03;;;;;;;8.50;3.28;;;;;;;;;;5070103;28;20443;-70
2023/12/12 02:01:30;;;;;;;19.95;3.95;;;;;;;;;;5068122;28;20086;-70
2023/12/12 02:03:57;;;;;;;12.55;4.03;;;;;;;;;;5070625;28;20114;-70
2023/12/12 02:06:24;;;;;;;10.88;3.75;;;;;;;;;;5063507;28;20056;-70
2023/12/12 02:08:50;;;;;;;11.38;3.97;;;;;;;;;;5062629;28;20023;-71
2023/12/12 02:11:17;;;;;;;9.98;2.40;;;;;;;;;;5063336;28;20040;-70
2023/12/12 02:13:43;;;;;;;10.80;3.22;;;;;;;;;;5061769;28;20039;-71
2023/12/12 02:16:09;;;;;;;9.43;3.45;;;;;;;;;;5059395;28;20496;-71
2023/12/12 02:18:36;;;;;;;8.40;3.63;;;;;;;;;;5059965;28;20539;-70
2023/12/12 02:21:03;;;;;;;8.00;2.85;;;;;;;;;;5065064;28;20031;-71
2023/12/12 02:23:30;;;;;;;8.35;2.80;;;;;;;;;;5061327;28;20028;-71
2023/12/12 02:25:59;;;;;;;11.20;3.20;;;;;;;;;;5057889;28;20063;-71
2023/12/12 02:28:25;;;;;;;9.13;2.67;;;;;;;;;;5061771;28;20052;-70
2023/12/12 02:30:52;;;;;;;8.30;2.17;;;;;;;;;;5063063;28;20043;-70
2023/12/12 02:33:18;;;;;;;9.25;2.72;;;;;;;;;;5066387;28;20527;-70
2023/12/12 02:35:44;;;;;;;8.50;2.75;;;;;;;;;;5065190;28;20399;-71
2023/12/12 02:38:13;;;;;;;14.13;3.03;;;;;;;;;;5059024;28;20020;-70
2023/12/12 02:40:39;;;;;;;7.78;2.83;;;;;;;;;;5060782;28;20029;-70
2023/12/12 02:43:06;;;;;;;11.93;2.33;;;;;;;;;;5058512;28;20043;-70
2023/12/12 02:45:32;;;;;;;4.93;2.60;;;;;;;;;;5057904;28;20496;-70
2023/12/12 02:47:58;;;;;;;14.88;3.15;;;;;;;;;;5059615;28;20092;-71
2023/12/12 02:50:24;;;;;;;8.52;2.75;;;;;;;;;;5066984;28;20090;-71
2023/12/12 02:52:51;;;;;;;7.10;2.72;;;;;;;;;;5062011;28;20059;-71
2023/12/12 02:55:17;;;;;;;4.50;2.20;;;;;;;;;;5058580;28;20032;-71
2023/12/12 02:57:43;;;;;;;5.40;2.33;;;;;;;;;;5064539;28;20548;-71
2023/12/12 03:00:10;;;;;;;9.55;2.20;;;;;;;;;;5058954;28;20056;-70
2023/12/12 03:02:36;;;;;;;7.95;2.28;;;;;;;;;;5068123;28;20132;-71
2023/12/12 03:05:04;;;;;;;4.40;2.40;;;;;;;;;;5059860;28;20035;-70
2023/12/12 03:07:30;;;;;;;4.45;2.60;;;;;;;;;;5063817;28;20028;-70
2023/12/12 03:09:57;;;;;;;5.70;2.22;;;;;;;;;;5060091;28;20534;-70
2023/12/12 03:12:23;;;;;;;5.82;2.08;;;;;;;;;;5063603;28;20054;-70
2023/12/12 03:14:50;;;;;;;6.20;1.88;;;;;;;;;;5059534;28;20124;-70
2023/12/12 03:17:16;;;;;;;11.30;3.05;;;;;;;;;;5058943;28;20029;-70
2023/12/12 03:19:42;;;;;;;10.82;2.60;;;;;;;;;;5064370;28;20051;-70
2023/12/12 03:22:08;;;;;;;8.95;2.80;;;;;;;;;;5058475;28;20063;-70
2023/12/12 03:24:35;;;;;;;6.93;2.28;;;;;;;;;;5073268;28;20050;-70
2023/12/12 03:27:01;;;;;;;3.97;1.85;;;;;;;;;;5061174;28;20046;-70
2023/12/12 03:29:27;;;;;;;9.00;2.53;;;;;;;;;;5066000;28;20024;-70
2023/12/12 03:31:53;;;;;;;3.92;1.98;;;;;;;;;;5054850;28;20083;-70
2023/12/12 03:34:19;;;;;;;7.40;1.67;;;;;;;;;;5069937;28;20043;-70
2023/12/12 03:36:46;;;;;;;4.40;2.20;;;;;;;;;;5062350;28;20350;-70
2023/12/12 03:39:12;;;;;;;7.10;2.38;;;;;;;;;;5057032;28;20083;-70
2023/12/12 03:41:38;;;;;;;11.40;2.50;;;;;;;;;;5065020;28;20089;-70
2023/12/12 03:44:05;;;;;;;3.55;1.80;;;;;;;;;;5057838;28;20034;-71
2023/12/12 03:46:31;;;;;;;5.47;2.85;;;;;;;;;;5059167;28;20041;-70
2023/12/12 03:48:57;;;;;;;7.97;1.90;;;;;;;;;;5063563;28;20033;-70
2023/12/12 03:51:23;;;;;;;8.07;2.55;;;;;;;;;;5088528;28;20061;-72
2023/12/12 03:53:50;;;;;;;4.97;2.22;;;;;;;;;;5064347;28;20051;-71
2023/12/12 03:56:16;;;;;;;5.65;2.28;;;;;;;;;;5060087;28;20033;-70
2023/12/12 03:58:42;;;;;;;5.90;2.25;;;;;;;;;;5061611;28;20040;-70
2023/12/12 04:01:08;;;;;;;5.95;1.90;;;;;;;;;;5058818;28;20049;-70
2023/12/12 04:03:34;;;;;;;7.45;1.90;;;;;;;;;;5059976;28;20021;-70
2023/12/12 04:06:04;;;;;;;10.93;2.28;;;;;;;;;;5064776;28;20029;-70
2023/12/12 04:08:30;;;;;;;3.25;1.90;;;;;;;;;;5060166;28;20052;-70
2023/12/12 04:10:56;;;;;;;2.60;1.88;;;;;;;;;;5064123;28;20025;-70
2023/12/12 04:13:23;;;;;;;6.35;1.90;;;;;;;;;;5053708;28;20455;-71
2023/12/12 04:15:49;;;;;;;6.53;2.55;;;;;;;;;;5061914;28;20020;-70
2023/12/12 04:18:15;;;;;;;8.40;3.67;;;;;;;;;;5061509;28;20028;-70
2023/12/12 04:20:41;;;;;;;5.32;2.78;;;;;;;;;;5062929;28;20411;-70
2023/12/12 04:23:07;;;;;;;7.93;2.10;;;;;;;;;;5064985;28;20025;-70
2023/12/12 04:25:34;;;;;;;9.95;2.30;;;;;;;;;;5065547;28;20020;-70
2023/12/12 04:28:00;;;;;;;6.13;1.98;;;;;;;;;;5055511;28;20037;-70
2023/12/12 04:30:26;;;;;;;5.55;2.13;;;;;;;;;;5050717;28;20103;-70
2023/12/12 04:32:52;;;;;;;8.32;2.53;;;;;;;;;;5053444;28;20147;-70
2023/12/12 04:35:19;;;;;;;5.88;2.45;;;;;;;;;;5065565;28;20115;-70
2023/12/12 04:37:46;;;;;;;4.10;2.00;;;;;;;;;;5052556;28;20033;-70
2023/12/12 04:40:12;;;;;;;6.68;2.20;;;;;;;;;;5049635;28;20033;-70
2023/12/12 04:42:38;;;;;;;7.05;2.10;;;;;;;;;;5051761;28;20302;-70
2023/12/12 04:45:05;;;;;;;7.60;2.40;;;;;;;;;;5058617;28;20054;-70
2023/12/12 04:47:31;;;;;;;4.20;2.10;;;;;;;;;;5055946;28;20366;-70
2023/12/12 04:49:57;;;;;;;9.30;2.25;;;;;;;;;;5059177;28;20039;-70
2023/12/12 04:52:23;;;;;;;2.58;2.03;;;;;;;;;;5055951;28;20486;-70
2023/12/12 04:54:50;;;;;;;11.38;3.58;;;;;;;;;;5063542;28;20051;-70
2023/12/12 04:57:16;;;;;;;3.47;2.17;;;;;;;;;;5062976;28;20139;-70
2023/12/12 04:59:42;;;;;;;3.42;2.03;;;;;;;;;;5060347;28;20038;-70
2023/12/12 05:02:08;;;;;;;4.25;2.38;;;;;;;;;;5060087;28;20459;-70
2023/12/12 05:04:36;;;;;;;7.88;2.45;;;;;;;;;;5076570;28;20024;-70
2023/12/12 05:07:02;;;;;;;8.73;1.98;;;;;;;;;;5055298;28;20024;-70
2023/12/12 05:09:28;;;;;;;3.05;2.08;;;;;;;;;;5060492;28;20090;-69
2023/12/12 05:11:54;;;;;;;5.20;2.22;;;;;;;;;;5061791;28;20400;-71
2023/12/12 05:14:21;;;;;;;5.45;1.77;;;;;;;;;;5059017;28;20039;-69
2023/12/12 05:16:49;;;;;;;4.35;2.15;;;;;;;;;;5058692;28;20075;-70
2023/12/12 05:19:15;;;;;;;10.55;2.22;;;;;;;;;;5057521;28;20027;-70
2023/12/12 05:21:41;;;;;;;7.88;2.15;;;;;;;;;;5090840;28;20448;-70
2023/12/12 05:24:07;;;;;;;3.63;2.00;;;;;;;;;;5059182;28;20024;-69
2023/12/12 05:26:34;;;;;;;3.38;1.90;;;;;;;;;;5062525;28;20058;-70
2023/12/12 05:29:00;;;;;;;6.25;2.00;;;;;;;;;;5060099;28;20478;-70
2023/12/12 05:31:27;;;;;;;3.72;1.90;;;;;;;;;;5059149;28;20100;-70
2023/12/12 05:33:53;;;;;;;9.77;1.85;;;;;;;;;;5064403;28;20043;-70
2023/12/12 05:36:19;;;;;;;5.43;2.05;;;;;;;;;;5059621;28;20540;-69
2023/12/12 05:38:46;;;;;;;5.80;2.15;;;;;;;;;;5057573;28;20059;-70
2023/12/12 05:41:12;;;;;;;5.25;2.40;;;;;;;;;;5056622;28;20039;-70
2023/12/12 05:43:38;;;;;;;4.20;1.90;;;;;;;;;;5048533;28;20039;-70
2023/12/12 05:46:04;;;;;;;2.28;2.08;;;;;;;;;;5062694;28;20049;-70
2023/12/12 05:48:30;;;;;;;4.47;1.85;;;;;;;;;;5061015;28;20028;-70
2023/12/12 05:50:57;;;;;;;3.30;2.03;;;;;;;;;;5072824;28;20512;-70
2023/12/12 05:53:23;;;;;;;2.63;2.03;;;;;;;;;;5062176;28;20035;-70
2023/12/12 05:55:50;;;;;;;8.90;2.20;;;;;;;;;;5057085;28;20017;-70
2023/12/12 05:58:16;;;;;;;3.80;1.80;;;;;;;;;;5076003;28;20040;-70
2023/12/12 06:00:42;;;;;;;5.78;2.53;;;;;;;;;;5061399;28;20057;-70
2023/12/12 06:03:08;;;;;;;6.32;1.90;;;;;;;;;;5056552;28;20032;-70
2023/12/12 06:05:34;;;;;;;3.58;2.00;;;;;;;;;;5067842;28;20086;-70
2023/12/12 06:08:01;;;;;;;3.97;1.85;;;;;;;;;;5061962;28;20051;-70
2023/12/12 06:10:27;;;;;;;5.05;2.40;;;;;;;;;;5068099;28;20040;-71
2023/12/12 06:12:54;;;;;;;4.50;2.15;;;;;;;;;;5061520;28;20106;-70
2023/12/12 06:15:20;;;;;;;6.13;2.70;;;;;;;;;;5063484;28;20573;-70
2023/12/12 06:17:47;;;;;;;7.78;2.55;;;;;;;;;;5067334;28;20039;-71
2023/12/12 06:20:14;;;;;;;14.07;2.90;;;;;;;;;;5065766;28;20361;-70
2023/12/12 06:22:40;;;;;;;4.25;2.10;;;;;;;;;;5063064;28;20028;-72
2023/12/12 06:25:06;;;;;;;4.72;2.35;;;;;;;;;;5060535;28;20090;-71
2023/12/12 06:27:33;;;;;;;10.50;2.58;;;;;;;;;;5066039;28;20093;-72
2023/12/12 06:29:59;;;;;;;6.57;2.53;;;;;;;;;;5069727;28;20029;-70
2023/12/12 06:32:25;;;;;;;7.57;2.78;;;;;;;;;;5067108;28;20025;-70
2023/12/12 06:34:51;;;;;;;4.53;2.40;;;;;;;;;;5062337;28;20093;-71
2023/12/12 06:37:18;;;;;;;5.53;2.00;;;;;;;;;;5060441;28;20400;-70
2023/12/12 06:39:44;;;;;;;3.95;2.10;;;;;;;;;;5060790;28;20031;-70
2023/12/12 06:42:11;;;;;;;11.50;2.83;;;;;;;;;;5061038;28;20033;-71
2023/12/12 06:44:37;;;;;;;9.10;2.30;;;;;;;;;;5055693;28;20067;-70
2023/12/12 06:47:03;;;;;;;7.10;2.60;;;;;;;;;;5060747;28;20158;-71
2023/12/12 06:49:29;;;;;;;2.97;1.90;;;;;;;;;;5060143;28;20032;-71
2023/12/12 06:51:56;;;;;;;4.45;2.47;;;;;;;;;;5067330;28;20054;-70
2023/12/12 06:54:22;;;;;;;9.75;2.88;;;;;;;;;;5060530;28;20028;-70
2023/12/12 06:56:48;;;;;;;8.63;2.20;;;;;;;;;;5066826;28;20464;-70
2023/12/12 06:59:14;;;;;;;6.32;2.63;;;;;;;;;;5063415;28;20040;-70
2023/12/12 07:01:40;;;;;;;9.52;3.05;;;;;;;;;;5061389;28;20205;-71
2023/12/12 07:04:06;;;;;;;3.83;2.38;;;;;;;;;;5061452;28;20060;-70
2023/12/12 07:06:32;;;;;;;9.57;3.22;;;;;;;;;;5066422;28;20494;-71
2023/12/12 07:08:59;;;;;;;13.90;2.85;;;;;;;;;;5059214;28;20531;-71
2023/12/12 07:11:25;;;;;;;5.45;2.40;;;;;;;;;;5060427;28;20086;-71
2023/12/12 07:13:51;;;;;;;8.82;2.47;;;;;;;;;;5060622;28;20071;-71
2023/12/12 07:16:18;;;;;;;7.68;2.17;;;;;;;;;;5063051;28;20032;-71
2023/12/12 07:18:44;;;;;;;4.85;2.30;;;;;;;;;;5066893;28;20032;-70
2023/12/12 07:21:10;;;;;;;6.10;2.45;;;;;;;;;;5062694;28;20032;-71
2023/12/12 07:23:36;;;;;;;5.43;2.13;;;;;;;;;;5067975;28;20491;-71
2023/12/12 07:26:02;;;;;;;6.82;2.40;;;;;;;;;;5064641;28;20032;-70
2023/12/12 07:28:29;;;;;;;5.68;2.60;;;;;;;;;;5067879;28;20028;-71
2023/12/12 07:30:55;;;;;;;5.60;3.13;;;;;;;;;;5060551;28;20108;-71
2023/12/12 07:33:21;;;;;;;7.90;2.30;;;;;;;;;;5064343;28;20706;-70
2023/12/12 07:35:47;;;;;;;5.28;2.10;;;;;;;;;;5063319;28;20068;-71
2023/12/12 07:38:13;;;;;;;12.98;3.28;;;;;;;;;;5066902;28;20064;-70
2023/12/12 07:40:39;;;;;;;4.60;2.60;;;;;;;;;;5063632;28;20024;-71
2023/12/12 07:43:06;;;;;;;5.65;2.33;;;;;;;;;;5057839;28;20055;-71
2023/12/12 07:45:32;;;;;;;10.40;2.28;;;;;;;;;;5059201;28;20044;-71
2023/12/12 07:47:58;;;;;;;7.35;2.38;;;;;;;;;;5059611;28;20437;-70
2023/12/12 07:50:27;;;;;;;4.88;3.13;;;;;;;;;;5064336;28;20019;-70
2023/12/12 07:52:53;;;;;;;5.15;2.70;;;;;;;;;;5061825;28;20031;-70
2023/12/12 07:55:20;;;;;;;4.10;2.40;;;;;;;;;;5060524;28;20024;-72
2023/12/12 07:57:46;;;;;;;6.38;2.47;;;;;;;;;;5060526;28;20028;-70
2023/12/12 08:00:13;;;;;;;4.47;2.30;;;;;;;;;;5047816;28;20955;-69
2023/12/12 08:02:40;;;;;;;5.00;2.35;;;;;;;;;;5044402;28;20028;-71
2023/12/12 08:05:06;;;;;;;5.82;2.95;;;;;;;;;;5064196;28;20035;-70
2023/12/12 08:07:32;;;;;;;5.80;2.92;;;;;;;;;;5058395;28;20436;-73
2023/12/12 08:09:59;;;;;;;18.73;2.58;;;;;;;;;;5055275;28;20056;-70
2023/12/12 08:12:25;;;;;;;5.93;2.55;;;;;;;;;;5069034;28;20029;-71
2023/12/12 08:14:55;;;;;;;4.45;2.05;;;;;;;;;;5054144;28;20099;-72
2023/12/12 08:17:21;;;;;;;4.80;2.75;;;;;;;;;;5052258;28;20478;-70
2023/12/12 08:19:47;;;;;;;5.10;3.20;;;;;;;;;;5055441;28;20490;-70
2023/12/12 08:22:14;;;;;;;4.85;2.75;;;;;;;;;;5059670;28;20057;-70
2023/12/12 08:24:40;;;;;;;6.28;3.00;;;;;;;;;;5056090;28;20040;-69
2023/12/12 08:27:07;;;;;;;4.68;2.53;;;;;;;;;;5063853;28;20535;-72
2023/12/12 08:29:33;;;;;;;3.42;2.72;;;;;;;;;;5073522;28;20048;-72
2023/12/12 08:32:00;;;;;;;4.38;3.20;;;;;;;;;;5063156;28;20043;-70
2023/12/12 08:34:26;;;;;;;5.03;2.72;;;;;;;;;;5068425;28;20036;-69
2023/12/12 08:36:53;;;;;;;11.35;3.40;;;;;;;;;;5055814;28;20480;-70
2023/12/12 08:39:20;;;;;;;9.18;3.00;;;;;;;;;;5055273;28;20737;-69
2023/12/12 08:41:47;;;;;;;8.65;3.55;;;;;;;;;;5075212;28;20135;-71
2023/12/12 08:44:13;;;;;;;7.80;3.80;;;;;;;;;;5060311;28;20037;-70
2023/12/12 08:46:43;;;;;;;5.68;3.53;;;;;;;;;;5059282;28;20048;-70
2023/12/12 08:49:09;;;;;;;9.50;3.60;;;;;;;;;;5056691;28;20028;-69
2023/12/12 08:51:35;;;;;;;5.45;3.00;;;;;;;;;;5063210;28;20480;-70
2023/12/12 08:54:02;;;;;;;5.97;3.55;;;;;;;;;;5058675;28;20032;-70
2023/12/12 08:56:29;;;;;;;9.05;3.03;;;;;;;;;;5059135;28;20507;-72
2023/12/12 08:58:55;;;;;;;5.38;3.45;;;;;;;;;;5063613;28;20078;-67
2023/12/12 09:01:22;;;;;;;5.85;2.60;;;;;;;;;;5060563;28;20052;-69
2023/12/12 09:03:48;;;;;;;7.00;3.03;;;;;;;;;;5066001;28;20025;-68
2023/12/12 09:06:14;;;;;;;7.03;3.88;;;;;;;;;;5053240;28;20373;-72
2023/12/12 09:08:41;;;;;;;4.07;2.90;;;;;;;;;;5068402;28;20519;-70
2023/12/12 09:11:09;;;;;;;7.38;3.67;;;;;;;;;;5061250;28;20251;-70
2023/12/12 09:13:35;;;;;;;7.40;3.67;;;;;;;;;;5054667;28;20031;-68
2023/12/12 09:16:01;;;;;;;5.45;3.78;;;;;;;;;;5056314;28;20368;-67
2023/12/12 09:18:27;;;;;;;19.00;4.70;;;;;;;;;;5057472;28;20393;-71
2023/12/12 09:20:53;;;;;;;17.15;5.63;;;;;;;;;;5062111;28;20112;-72
2023/12/12 09:23:20;;;;;;;17.58;5.32;;;;;;;;;;5057958;28;20442;-71
2023/12/12 09:25:46;;;;;;;8.75;4.25;;;;;;;;;;5069534;28;20380;-72
2023/12/12 09:28:13;;;;;;;8.55;4.45;;;;;;;;;;5063055;28;20037;-71
2023/12/12 09:30:42;;;;;;;11.68;4.78;;;;;;;;;;5077988;28;20530;-70
2023/12/12 09:33:08;;;;;;;4.70;3.10;;;;;;;;;;5070891;28;20032;-70
2023/12/12 09:35:38;;;;;;;7.90;3.67;;;;;;;;;;5063809;28;20062;-71
2023/12/12 09:38:04;;;;;;;8.70;4.47;;;;;;;;;;5059069;28;20652;-68
2023/12/12 09:40:31;;;;;;;9.35;4.75;;;;;;;;;;5076405;28;20028;-69
2023/12/12 09:42:57;;;;;;;8.70;5.10;;;;;;;;;;5075708;28;20890;-69
2023/12/12 09:45:25;;;;;;;7.70;4.30;;;;;;;;;;5061244;28;20048;-68
2023/12/12 09:47:51;;;;;;;11.23;4.53;;;;;;;;;;5074254;28;20037;-68
2023/12/12 09:50:18;;;;;;;23.17;4.28;;;;;;;;;;5058392;28;20066;-68
2023/12/12 09:52:46;;;;;;;18.02;4.40;;;;;;;;;;5057196;28;20029;-68
2023/12/12 09:55:14;;;;;;;20.38;4.13;;;;;;;;;;5058306;28;20066;-68
2023/12/12 09:57:40;;;;;;;10.90;3.17;;;;;;;;;;5054565;28;20030;-69
2023/12/12 10:00:08;;;;;;;24.63;3.72;;;;;;;;;;5057110;28;20040;-70
2023/12/12 10:02:36;;;;;;;17.15;3.90;;;;;;;;;;5068304;28;20040;-70
2023/12/12 10:05:09;;;;;;;32.35;3.80;;;;;;;;;;5059681;28;20462;-72
2023/12/12 10:07:37;;;;;;;17.65;5.65;;;;;;;;;;5068277;28;20098;-69
2023/12/12 10:10:07;;;;;;;25.92;6.97;;;;;;;;;;5064873;28;20013;-67
2023/12/12 10:12:35;;;;;;;15.02;6.70;;;;;;;;;;5060121;28;20540;-70
2023/12/12 10:15:01;;;;;;;17.25;5.35;;;;;;;;;;5061112;28;20033;-68
2023/12/12 10:17:27;;;;;;;19.17;4.88;;;;;;;;;;5066688;28;20029;-68
2023/12/12 10:20:03;;;;;;;12.48;5.07;;;;;;;;;;5063540;28;20476;-69
2023/12/12 10:22:31;;;;;;;15.10;4.63;;;;;;;;;;5059218;28;20024;-68
2023/12/12 10:25:17;;;;;;;12.82;4.20;;;;;;;;;;5061538;28;20025;-70
2023/12/12 10:27:43;;;;;;;6.15;4.55;;;;;;;;;;5061375;28;20186;-70
2023/12/12 10:30:13;;;;;;;8.95;4.25;;;;;;;;;;5063732;28;20403;-71
2023/12/12 10:32:40;;;;;;;7.43;3.72;;;;;;;;;;5079180;28;20110;-69
2023/12/12 10:35:07;;;;;;;12.07;3.92;;;;;;;;;;5052337;28;20028;-68
2023/12/12 10:37:34;;;;;;;8.10;3.15;;;;;;;;;;5063344;28;20290;-67
2023/12/12 10:40:16;;;;;;;6.25;2.80;;;;;;;;;;5078780;28;20034;-66
2023/12/12 10:42:43;;;;;;;11.13;4.88;;;;;;;;;;5068061;28;20033;-69
2023/12/12 10:45:13;;;;;;;6.53;3.13;;;;;;;;;;5064862;28;20036;-69
2023/12/12 10:47:45;;;;;;;6.75;3.63;;;;;;;;;;5074055;28;20017;-67
2023/12/12 10:50:15;;;;;;;7.60;3.88;;;;;;;;;;5072692;28;20040;-68
2023/12/12 10:52:43;;;;;;;6.40;3.88;;;;;;;;;;5060369;28;20114;-69
2023/12/12 10:55:10;;;;;;;9.13;4.82;;;;;;;;;;5055701;28;20032;-68
2023/12/12 10:57:38;;;;;;;7.75;4.18;;;;;;;;;;5058816;28;20438;-68
2023/12/12 11:00:11;;;;;;;6.60;3.97;;;;;;;;;;5077016;28;20451;-70
2023/12/12 11:02:39;;;;;;;6.80;4.20;;;;;;;;;;5072117;28;20048;-70
2023/12/12 11:05:07;;;;;;;7.72;3.70;;;;;;;;;;5066470;28;20035;-69
2023/12/12 11:07:35;;;;;;;9.95;3.80;;;;;;;;;;5052105;28;20020;-73
2023/12/12 11:10:03;;;;;;;8.52;4.57;;;;;;;;;;5062030;28;20016;-71
2023/12/12 11:12:30;;;;;;;22.15;6.22;;;;;;;;;;5062814;28;20394;-69
2023/12/12 11:14:57;;;;;;;17.52;6.60;;;;;;;;;;5059272;28;20423;-69
2023/12/12 11:17:23;;;;;;;15.02;5.65;;;;;;;;;;5059416;28;20039;-71
2023/12/12 11:19:49;;;;;;;13.52;4.95;;;;;;;;;;5076756;28;20434;-70
2023/12/12 11:22:34;;;;;;;10.57;5.78;;;;;;;;;;5060317;28;20029;-73
2023/12/12 11:25:03;;;;;;;15.75;6.03;;;;;;;;;;5062678;28;20032;-68
2023/12/12 11:27:31;;;;;;;16.60;7.15;;;;;;;;;;5062137;28;20025;-71
2023/12/12 11:29:57;;;;;;;13.73;6.50;;;;;;;;;;5060452;28;20385;-68
2023/12/12 11:32:24;;;;;;;13.48;6.10;;;;;;;;;;5058291;28;20024;-68
2023/12/12 11:34:51;;;;;;;17.80;6.60;;;;;;;;;;5061532;28;20052;-72
2023/12/12 11:37:18;;;;;;;12.57;5.40;;;;;;;;;;5061975;28;20025;-75
2023/12/12 11:39:51;;;;;;;13.98;6.28;;;;;;;;;;5059126;28;20035;-74
2023/12/12 11:42:28;;;;;;;21.00;7.32;;;;;;;;;;5078407;28;20033;-73
2023/12/12 11:44:58;;;;;;;17.77;6.90;;;;;;;;;;5060295;28;20052;-73
2023/12/12 11:47:30;;;;;;;14.98;6.65;;;;;;;;;;5080234;28;20031;-73
2023/12/12 11:50:26;;;;;;;13.27;6.20;;;;;;;;;;5067646;28;20052;-74
2023/12/12 11:52:52;;;;;;;12.55;6.05;;;;;;;;;;5063831;28;20046;-73
2023/12/12 11:55:28;;;;;;;14.85;6.18;;;;;;;;;;5063504;28;20033;-73
2023/12/12 11:57:54;;;;;;;;;;;;;;;;;;5061928;28;20040;-76
2023/12/12 12:00:20;;;;;;;15.18;5.95;;;;;;;;;;5058241;28;19913;-70
2023/12/12 12:02:46;;;;;;;16.67;5.88;;;;;;;;;;5052497;28;20024;-69
2023/12/12 12:05:14;;;;;;;16.08;6.63;;;;;;;;;;5051446;28;20020;-70
2023/12/12 12:07:41;;;;;;;13.07;5.63;;;;;;;;;;5047493;28;20077;-70
2023/12/12 12:10:10;;;;;;;14.43;5.68;;;;;;;;;;5073964;28;20029;-69
2023/12/12 12:12:36;;;;;;;11.80;6.07;;;;;;;;;;5078306;28;20051;-69
2023/12/12 12:15:06;;;;;;;16.00;7.50;;;;;;;;;;5055648;28;20802;-69
2023/12/12 12:17:33;;;;;;;16.38;5.70;;;;;;;;;;5055009;28;20040;-70
2023/12/12 12:20:00;;;;;;;13.23;5.25;;;;;;;;;;5063995;28;20040;-68
2023/12/12 12:22:26;;;;;;;9.18;5.13;;;;;;;;;;5073396;28;20032;-69
2023/12/12 12:24:52;;;;;;;11.75;5.70;;;;;;;;;;5060625;28;20473;-69
2023/12/12 12:27:19;;;;;;;13.43;5.43;;;;;;;;;;5064739;28;20028;-70
2023/12/12 12:30:06;;;;;;;10.18;5.32;;;;;;;;;;5063025;28;20020;-69
2023/12/12 12:32:33;;;;;;;10.32;5.60;;;;;;;;;;5060844;28;20078;-69
2023/12/12 12:35:07;;;;;;;12.32;6.35;;;;;;;;;;5060562;28;20415;-70
2023/12/12 12:37:34;;;;;;;9.55;5.32;;;;;;;;;;5051346;28;20104;-69
2023/12/12 12:40:07;;;;;;;9.10;5.00;;;;;;;;;;5056078;28;20643;-69
2023/12/12 12:42:35;;;;;;;8.57;4.95;;;;;;;;;;5053258;28;20031;-69
2023/12/12 12:45:06;;;;;;;8.35;4.40;;;;;;;;;;5060357;28;20392;-70
2023/12/12 12:47:32;;;;;;;6.20;2.90;;;;;;;;;;5061553;28;20103;-70
2023/12/12 12:49:59;;;;;;;10.88;4.28;;;;;;;;;;5065863;28;20021;-71
2023/12/12 12:52:25;;;;;;;6.50;4.57;;;;;;;;;;5060912;28;20025;-72
2023/12/12 12:54:52;;;;;;;6.85;3.13;;;;;;;;;;5051158;28;20056;-71
2023/12/12 12:57:18;;;;;;;9.13;4.20;;;;;;;;;;5066958;28;20548;-70
2023/12/12 12:59:48;;;;;;;5.78;3.50;;;;;;;;;;5066022;28;20502;-70
2023/12/12 13:02:14;;;;;;;9.80;4.00;;;;;;;;;;5062885;28;20495;-71
2023/12/12 13:04:40;;;;;;;6.13;3.20;;;;;;;;;;5051629;28;20029;-72
2023/12/12 13:07:07;;;;;;;6.53;3.42;;;;;;;;;;5065210;28;20024;-71
2023/12/12 13:09:34;;;;;;;6.25;4.22;;;;;;;;;;5079302;28;20065;-73
2023/12/12 13:12:06;;;;;;;7.38;3.78;;;;;;;;;;5071094;28;20036;-71
2023/12/12 13:14:33;;;;;;;8.93;4.05;;;;;;;;;;5082142;28;20063;-73
2023/12/12 13:16:59;;;;;;;10.75;3.75;;;;;;;;;;5066654;28;20039;-71
2023/12/12 13:19:26;;;;;;;8.13;4.70;;;;;;;;;;5068275;28;20033;-71
2023/12/12 13:21:55;;;;;;;10.73;5.65;;;;;;;;;;5061559;28;20040;-70
2023/12/12 13:24:22;;;;;;;7.43;4.45;;;;;;;;;;5062833;28;20414;-69
2023/12/12 13:26:50;;;;;;;7.18;3.90;;;;;;;;;;5064324;28;20594;-68
2023/12/12 13:29:16;;;;;;;6.05;4.30;;;;;;;;;;5064646;28;20023;-67
2023/12/12 13:31:42;;;;;;;8.02;4.10;;;;;;;;;;5075250;28;20561;-67
2023/12/12 13:34:08;;;;;;;9.90;4.15;;;;;;;;;;5063555;28;20071;-68
2023/12/12 13:36:36;;;;;;;4.72;3.88;;;;;;;;;;5080665;28;20028;-68
2023/12/12 13:39:03;;;;;;;7.68;4.22;;;;;;;;;;5066992;28;20032;-71
2023/12/12 13:41:30;;;;;;;6.45;3.53;;;;;;;;;;5070605;28;20068;-70
2023/12/12 13:43:56;;;;;;;7.35;4.05;;;;;;;;;;5068861;28;20112;-68
2023/12/12 13:46:22;;;;;;;7.25;3.72;;;;;;;;;;5062813;28;20146;-68
2023/12/12 13:48:48;;;;;;;5.72;3.17;;;;;;;;;;5062591;28;20021;-70
2023/12/12 13:51:14;;;;;;;5.45;3.88;;;;;;;;;;5052493;28;21055;-69
2023/12/12 13:53:41;;;;;;;7.25;3.60;;;;;;;;;;5065593;28;20115;-68
2023/12/12 13:56:07;;;;;;;6.18;3.53;;;;;;;;;;5065187;28;20089;-70
2023/12/12 13:58:33;;;;;;;6.95;3.42;;;;;;;;;;5068330;28;20108;-70
2023/12/12 14:01:01;;;;;;;5.95;3.20;;;;;;;;;;5064417;28;20063;-68
2023/12/12 14:03:27;;;;;;;8.10;3.25;;;;;;;;;;5063220;28;20711;-69
2023/12/12 14:05:54;;;;;;;6.93;3.83;;;;;;;;;;5058587;28;20032;-69
2023/12/12 14:08:20;;;;;;;6.22;3.60;;;;;;;;;;5063776;28;20024;-70
2023/12/12 14:10:46;;;;;;;6.60;3.85;;;;;;;;;;5066787;28;20025;-70
2023/12/12 14:13:12;;;;;;;7.45;3.22;;;;;;;;;;5061330;28;20055;-69
2023/12/12 14:15:39;;;;;;;8.57;7.63;;;;;;;;;;5065043;28;20657;-71
2023/12/12 14:18:05;;;;;;;9.77;6.18;;;;;;;;;;5063282;28;20039;-70
2023/12/12 14:20:31;;;;;;;13.15;11.60;;;;;;;;;;5059361;28;20032;-71
2023/12/12 14:22:58;;;;;;;7.38;5.38;;;;;;;;;;5059426;28;20068;-71
2023/12/12 14:25:24;;;;;;;9.50;6.60;;;;;;;;;;5059435;28;20490;-71
2023/12/12 14:27:51;;;;;;;7.00;4.45;;;;;;;;;;5052729;28;20075;-70
2023/12/12 14:30:18;;;;;;;6.63;4.82;;;;;;;;;;5058216;28;20035;-71
2023/12/12 14:32:45;;;;;;;9.35;4.85;;;;;;;;;;5058769;28;20043;-71
2023/12/12 14:35:11;;;;;;;8.40;5.72;;;;;;;;;;5057765;28;20404;-71
2023/12/12 14:37:37;;;;;;;11.73;9.27;;;;;;;;;;5059968;28;20067;-71